Time;durP1;ratioP1;P1;durP2;ratioP2;P2;SDS_P1;SDS_P2;PMS_P1;PMS_P2;Temp;Humidity;BMP_temperature;BMP_pressure;BME280_temperature;BME280_humidity;BME280_pressure;Samples;Min_cycle;Max_cycle;Signal;HPM_P1;HPM_P2
2022/11/25 00:01:40;;;;;;;;;64.33;50.00;;;;;3.09;100.00;99514.44;6313110;20;2875395;-61
2022/11/25 00:04:10;;;;;;;;;67.67;53.67;;;;;2.93;100.00;99507.91;6315249;20;3625295;-62
2022/11/25 00:06:39;;;;;;;;;74.00;57.00;;;;;2.98;100.00;99516.59;6311711;20;3636770;-62
2022/11/25 00:09:13;;;;;;;;;72.00;54.67;;;;;3.03;100.00;99519.97;6310901;20;3644036;-62
2022/11/25 00:11:43;;;;;;;;;63.00;49.00;;;;;2.79;100.00;99517.19;6314720;20;3633600;-61
2022/11/25 00:14:16;;;;;;;;;66.33;48.33;;;;;2.70;100.00;99527.22;6314543;20;3628417;-62
2022/11/25 00:16:45;;;;;;;;;67.00;51.00;;;;;2.59;100.00;99532.88;6311415;20;2883757;-61
2022/11/25 00:19:17;;;;;;;;;66.67;51.67;;;;;2.58;100.00;99533.75;6311106;20;3641947;-62
2022/11/25 00:21:46;;;;;;;;;62.33;48.67;;;;;2.74;100.00;99539.44;6313944;20;2875679;-62
2022/11/25 00:24:16;;;;;;;;;58.50;46.50;;;;;2.60;100.00;99547.84;6310009;20;2870135;-62
2022/11/25 00:26:45;;;;;;;;;66.00;49.50;;;;;2.70;100.00;99541.34;6278079;20;2878408;-62
2022/11/25 00:29:14;;;;;;;;;67.67;48.33;;;;;2.68;100.00;99550.25;6279371;20;3638791;-62
2022/11/25 00:31:44;;;;;;;;;70.33;51.67;;;;;2.61;100.00;99545.16;6310579;20;3647110;-62
2022/11/25 00:34:14;;;;;;;;;68.00;49.00;;;;;2.65;100.00;99543.25;6311472;20;2601339;-62
2022/11/25 00:36:44;;;;;;;;;68.67;48.33;;;;;2.62;100.00;99551.31;6309820;20;3634650;-62
2022/11/25 00:39:17;;;;;;;;;71.00;52.67;;;;;2.52;100.00;99556.03;6311313;20;3636722;-62
2022/11/25 00:44:35;;;;;;;;;61.33;49.67;;;;;2.57;100.00;99553.25;6315618;20;3613804;-61
2022/11/25 00:47:16;;;;;;;;;70.33;53.33;;;;;2.55;100.00;99560.38;6312475;20;3637759;-62
2022/11/25 00:49:53;;;;;;;;;72.00;52.00;;;;;2.32;100.00;99564.59;6313554;20;3643989;-62
2022/11/25 00:52:26;;;;;;;;;66.00;49.33;;;;;2.38;100.00;99563.53;6311177;20;3625325;-62
2022/11/25 00:54:55;;;;;;;;;71.33;51.00;;;;;2.38;100.00;99561.75;6311874;20;3635723;-62
2022/11/25 00:57:25;;;;;;;;;65.67;52.33;;;;;2.40;100.00;99559.06;6310460;20;3632545;-62
2022/11/25 00:59:55;;;;;;;;;71.33;55.33;;;;;2.37;100.00;99564.44;6310738;20;3633555;-62
2022/11/25 01:02:24;;;;;;;;;72.33;51.00;;;;;2.41;100.00;99564.31;6312413;20;3651427;-62
2022/11/25 01:04:54;;;;;;;;;69.33;51.00;;;;;2.26;100.00;99559.47;6311937;20;3644036;-62
2022/11/25 01:07:23;;;;;;;;;73.33;54.33;;;;;2.33;100.00;99571.63;6309548;20;3641266;-62
2022/11/25 01:09:53;;;;;;;;;73.67;55.33;;;;;2.17;100.00;99584.44;6312598;20;3639940;-62
2022/11/25 01:12:22;;;;;;;;;67.67;51.33;;;;;2.05;100.00;99586.56;6311926;20;3635647;-62
2022/11/25 01:14:52;;;;;;;;;71.00;51.67;;;;;2.03;100.00;99588.38;6309627;20;3643996;-62
2022/11/25 01:17:21;;;;;;;;;63.33;48.33;;;;;2.05;100.00;99579.50;6310372;20;3628400;-62
2022/11/25 01:19:51;;;;;;;;;66.67;52.33;;;;;2.02;100.00;99578.72;6311545;20;2877513;-62
2022/11/25 01:22:19;;;;;;;;;66.00;50.50;;;;;2.22;100.00;99576.38;6310539;20;2873279;-62
2022/11/25 01:24:49;;;;;;;;;67.33;51.67;;;;;2.20;100.00;99578.19;6278890;20;3626412;-61
2022/11/25 01:27:18;;;;;;;;;71.67;54.00;;;;;2.21;100.00;99582.56;6310404;20;3640928;-62
2022/11/25 01:29:48;;;;;;;;;67.00;53.00;;;;;2.26;100.00;99583.31;6311022;20;3637809;-61
2022/11/25 01:32:17;;;;;;;;;74.00;51.33;;;;;2.28;100.00;99589.44;6311586;20;3652412;-62
2022/11/25 01:34:47;;;;;;;;;75.00;56.33;;;;;2.23;100.00;99586.03;6312145;20;3632735;-62
2022/11/25 01:37:17;;;;;;;;;75.67;56.00;;;;;2.32;100.00;99585.78;6310653;20;3644004;-61
2022/11/25 01:39:46;;;;;;;;;70.00;49.33;;;;;2.14;100.00;99584.53;6308740;20;3639945;-62
2022/11/25 01:42:17;;;;;;;;;76.67;54.33;;;;;1.90;100.00;99588.75;6312960;20;3655484;-61
2022/11/25 01:45:34;;;;;;;;;69.33;53.00;;;;;1.92;100.00;99586.03;6309797;20;2879472;-62
2022/11/25 01:48:40;;;;;;;;;65.67;51.67;;;;;1.74;100.00;99590.97;6310157;20;2877491;-62
2022/11/25 01:51:27;;;;;;;;;71.33;53.67;;;;;1.37;100.00;99588.44;6313448;20;3640918;-62
2022/11/25 01:54:03;;;;;;;;;66.33;50.00;;;;;1.54;100.00;99587.97;6308619;20;2869125;-62
2022/11/25 01:56:45;;;;;;;;;75.00;52.33;;;;;1.57;100.00;99594.97;6308429;20;3638781;-62
2022/11/25 01:59:14;;;;;;;;;66.00;52.00;;;;;1.54;100.00;99596.78;6309455;20;2869015;-62
2022/11/25 02:01:43;;;;;;;;;65.67;49.33;;;;;1.29;100.00;99590.38;6278930;20;2882638;-61
2022/11/25 02:04:17;;;;;;;;;72.33;54.33;;;;;1.20;100.00;99601.19;6308166;20;3641987;-61
2022/11/25 02:06:59;;;;;;;;;63.67;48.33;;;;;1.09;100.00;99599.69;6306649;20;3632043;-61
2022/11/25 02:09:30;;;;;;;;;76.67;57.33;;;;;1.25;100.00;99604.59;6306474;20;3625249;-62
2022/11/25 02:12:00;;;;;;;;;72.00;54.67;;;;;0.97;100.00;99610.53;6306865;20;3638854;-61
2022/11/25 02:14:30;;;;;;;;;70.67;52.00;;;;;1.09;100.00;99604.97;6304814;20;2883745;-61
2022/11/25 02:17:01;;;;;;;;;79.67;56.33;;;;;1.14;100.00;99611.94;6308478;20;3637898;-61
2022/11/25 02:20:04;;;;;;;;;81.00;58.00;;;;;1.21;100.00;99614.38;6309962;20;2832625;-61
2022/11/25 02:23:01;;;;;;;;;80.00;58.00;;;;;1.39;100.00;99620.97;6279517;20;3648159;-61
2022/11/25 02:25:36;;;;;;;;;96.67;67.67;;;;;1.27;100.00;99618.66;6304825;20;3653441;-61
2022/11/25 02:28:24;;;;;;;;;80.67;59.33;;;;;1.12;100.00;99619.03;6306647;20;3656507;-61
2022/11/25 02:30:54;;;;;;;;;79.00;55.67;;;;;1.10;100.00;99619.91;6307775;20;3641916;-63
2022/11/25 02:33:25;;;;;;;;;79.67;57.33;;;;;1.10;100.00;99619.06;6308275;20;3648212;-62
2022/11/25 02:36:10;;;;;;;;;78.33;55.67;;;;;1.09;100.00;99609.38;6307553;20;3650479;-62
2022/11/25 02:38:48;;;;;;;;;69.00;53.67;;;;;1.50;100.00;99616.28;6309706;20;3632630;-63
2022/11/25 02:41:36;;;;;;;;;60.50;47.00;;;;;1.69;100.00;99615.81;6305034;20;2865929;-62
2022/11/25 02:44:06;;;;;;;;;71.33;52.00;;;;;1.70;100.00;99618.41;6278056;20;3641917;-62
2022/11/25 02:46:36;;;;;;;;;62.33;50.33;;;;;1.59;100.00;99615.19;6310613;20;2874312;-61
2022/11/25 02:49:06;;;;;;;;;67.33;49.33;;;;;1.68;100.00;99617.56;6308797;20;3633591;-61
2022/11/25 02:51:43;;;;;;;;;66.33;51.00;;;;;1.59;100.00;99625.75;6309087;20;3629421;-61
2022/11/25 02:54:15;;;;;;;;;67.00;51.00;;;;;1.84;100.00;99631.25;6308121;20;2890140;-62
2022/11/25 02:56:44;;;;;;;;;62.67;48.33;;;;;1.81;100.00;99635.78;6309017;20;2880547;-62
2022/11/25 02:59:13;;;;;;;;;62.50;45.50;;;;;1.67;100.00;99642.31;6309097;20;2876345;-62
2022/11/25 03:01:41;;;;;;;;;65.50;48.00;;;;;1.50;100.00;99636.56;6277209;20;2865966;-62
2022/11/25 03:04:11;;;;;;;;;65.00;51.67;;;;;1.71;100.00;99643.97;6275868;20;2871250;-62
2022/11/25 03:06:40;;;;;;;;;62.33;46.67;;;;;1.44;100.00;99642.03;6302831;20;3620072;-62
2022/11/25 03:09:09;;;;;;;;;62.50;47.50;;;;;1.00;100.00;99641.31;6308557;20;2873250;-62
2022/11/25 03:14:26;;;;;;;;;64.00;50.50;;;;;1.09;100.00;99657.84;6311621;20;2866741;-61
2022/11/25 03:16:55;;;;;;;;;70.00;53.00;;;;;0.79;100.00;99653.25;6278382;20;2879477;-61
2022/11/25 03:19:23;;;;;;;;;55.50;44.00;;;;;0.76;100.00;99659.47;6280340;20;2863907;-62
2022/11/25 03:21:53;;;;;;;;;72.00;52.67;;;;;1.01;100.00;99670.38;6282563;20;3642011;-61
2022/11/25 03:24:22;;;;;;;;;72.00;54.33;;;;;1.10;100.00;99662.22;6314350;20;2888586;-62
2022/11/25 03:26:52;;;;;;;;;74.33;56.33;;;;;1.15;100.00;99655.97;6314901;20;3634660;-62
2022/11/25 03:29:21;;;;;;;;;75.00;56.00;;;;;1.15;100.00;99653.31;6311247;20;3644037;-62
2022/11/25 03:31:51;;;;;;;;;67.33;48.00;;;;;1.30;100.00;99666.19;6314115;20;3633772;-62
2022/11/25 03:34:20;;;;;;;;;68.33;51.33;;;;;1.40;100.00;99674.78;6312324;20;2860740;-62
2022/11/25 03:36:50;;;;;;;;;97.67;74.00;;;;;1.46;100.00;99691.34;6308670;20;3663929;-62
2022/11/25 03:39:19;;;;;;;;;68.50;52.00;;;;;1.51;100.00;99688.59;6279726;20;2874465;-62
2022/11/25 03:41:49;;;;;;;;;70.33;52.67;;;;;1.34;100.00;99685.47;6281943;20;2895184;-62
2022/11/25 03:44:18;;;;;;;;;69.67;50.67;;;;;1.56;100.00;99688.50;6314176;20;3628485;-62
2022/11/25 03:46:48;;;;;;;;;70.00;50.33;;;;;1.51;100.00;99694.75;6313654;20;2873249;-61
2022/11/25 03:49:18;;;;;;;;;76.67;59.67;;;;;1.68;100.00;99699.59;6313395;20;2875419;-62
2022/11/25 03:51:48;;;;;;;;;93.67;67.00;;;;;0.98;100.00;99711.88;6311360;20;3655482;-61
2022/11/25 03:54:18;;;;;;;;;81.00;61.33;;;;;0.48;100.00;99706.75;6308417;20;3638822;-62
2022/11/25 03:56:47;;;;;;;;;68.33;50.33;;;;;0.27;100.00;99707.19;6309643;20;3633606;-62
2022/11/25 03:59:16;;;;;;;;;62.00;46.00;;;;;0.02;100.00;99712.91;6313061;20;2864851;-62
2022/11/25 04:01:45;;;;;;;;;78.00;61.33;;;;;-0.07;100.00;99710.47;6281421;20;2879443;-62
2022/11/25 04:04:15;;;;;;;;;92.33;73.00;;;;;0.05;100.00;99709.34;6315344;20;3644106;-63
2022/11/25 04:06:45;;;;;;;;;93.67;70.33;;;;;0.29;100.00;99714.19;6312828;20;3666995;-63
2022/11/25 04:09:13;;;;;;;;;68.00;52.00;;;;;0.18;100.00;99714.34;6278389;20;2875325;-62
2022/11/25 04:14:30;;;;;;;;;67.00;48.33;;;;;0.29;100.00;99702.72;6281706;20;2883724;-62
2022/11/25 04:16:59;;;;;;;;;69.00;51.00;;;;;0.57;100.00;99716.25;6313130;20;2877321;-62
2022/11/25 04:19:29;;;;;;;;;69.67;54.00;;;;;0.44;100.00;99715.63;6311282;20;2865864;-62
2022/11/25 04:22:00;;;;;;;;;69.67;51.33;;;;;0.53;100.00;99720.75;6314493;20;2881514;-62
2022/11/25 04:24:28;;;;;;;;;69.00;53.50;;;;;0.38;100.00;99723.69;6311137;20;2869178;-62
2022/11/25 04:26:58;;;;;;;;;62.00;50.00;;;;;0.08;100.00;99723.38;6279934;20;2876386;-62
2022/11/25 04:29:27;;;;;;;;;66.00;50.50;;;;;0.07;100.00;99716.34;6311459;20;2855533;-62
2022/11/25 04:31:56;;;;;;;;;75.67;57.00;;;;;0.29;100.00;99721.22;6279560;20;3646495;-62
2022/11/25 04:34:26;;;;;;;;;78.33;55.00;;;;;0.25;100.00;99724.81;6312429;20;3637757;-62
2022/11/25 04:36:54;;;;;;;;;67.00;52.00;;;;;0.12;100.00;99734.75;6311929;20;2866977;-62
2022/11/25 04:39:24;;;;;;;;;70.00;52.33;;;;;-0.08;100.00;99737.72;6280876;20;2881665;-62
2022/11/25 04:42:30;;;;;;;;;67.00;53.50;;;;;-0.04;100.00;99734.16;6312718;20;2868009;-62
2022/11/25 04:44:42;;;;;;;;;68.00;50.67;;;;;-0.23;100.00;99744.16;6278303;20;2874327;-62
2022/11/25 04:47:32;;;;;;;;;77.67;57.67;;;;;-0.19;100.00;99750.25;6310692;20;3647177;-62
2022/11/25 04:50:03;;;;;;;;;77.33;56.67;;;;;-0.25;100.00;99752.09;6312832;20;3644076;-62
2022/11/25 04:52:33;;;;;;;;;85.67;63.00;;;;;-0.02;100.00;99764.03;6308603;20;3657589;-62
2022/11/25 04:55:04;;;;;;;;;79.67;59.67;;;;;-0.35;100.00;99768.94;6310625;20;3635699;-62
2022/11/25 04:57:33;;;;;;;;;84.67;62.33;;;;;-0.26;100.00;99782.00;6310047;20;3666963;-62
2022/11/25 05:00:05;;;;;;;;;95.67;71.00;;;;;-0.07;100.00;99774.66;6280169;20;3658609;-61
2022/11/25 05:02:35;;;;;;;;;99.33;72.67;;;;;0.02;100.00;99770.97;6279912;20;3668022;-62
2022/11/25 05:05:06;;;;;;;;;98.67;74.00;;;;;-0.25;100.00;99775.81;6276667;20;3680455;-62
2022/11/25 05:07:35;;;;;;;;;99.00;75.67;;;;;-0.04;100.00;99776.38;6276797;20;3670069;-62
2022/11/25 05:10:07;;;;;;;;;85.00;62.67;;;;;-0.21;100.00;99784.59;6310372;20;3659840;-62
2022/11/25 05:12:37;;;;;;;;;86.00;63.00;;;;;-0.31;100.00;99782.97;6313326;20;3658568;-62
2022/11/25 05:15:08;;;;;;;;;92.00;66.33;;;;;-0.08;100.00;99795.78;6311001;20;3649218;-62
2022/11/25 05:17:38;;;;;;;;;84.67;64.33;;;;;0.04;100.00;99794.72;6312103;20;3628387;-62
2022/11/25 05:20:10;;;;;;;;;83.67;64.00;;;;;0.11;100.00;99797.22;6310149;20;3642970;-62
2022/11/25 05:22:39;;;;;;;;;86.67;64.00;;;;;-0.09;100.00;99804.59;6312909;20;3630437;-62
2022/11/25 05:25:09;;;;;;;;;86.00;62.67;;;;;-0.33;100.00;99817.28;6309811;20;3659641;-62
2022/11/25 05:27:39;;;;;;;;;83.00;64.00;;;;;-0.04;100.00;99819.47;6307828;20;3641932;-62
2022/11/25 05:30:09;;;;;;;;;88.67;66.00;;;;;-0.05;100.00;99820.38;6307259;20;3639820;-62
2022/11/25 05:32:39;;;;;;;;;93.00;64.00;;;;;-0.04;100.00;99818.59;6313101;20;3655654;-62
2022/11/25 05:35:09;;;;;;;;;89.33;65.00;;;;;0.01;100.00;99819.41;6305538;20;3644093;-62
2022/11/25 05:37:39;;;;;;;;;115.25;97.50;;;;;-0.09;100.00;99831.84;6309180;20;3689896;-62
2022/11/25 05:40:10;;;;;;;;;108.33;83.00;;;;;-0.27;100.00;99838.28;6309477;20;3694000;-62
2022/11/25 05:42:39;;;;;;;;;127.00;98.67;;;;;-0.28;100.00;99847.09;6281573;20;3709620;-62
2022/11/25 05:45:10;;;;;;;;;115.67;93.67;;;;;-0.15;100.00;99844.28;6278474;20;3680447;-62
2022/11/25 05:47:40;;;;;;;;;140.50;108.75;;;;;-0.27;100.00;99853.25;6276775;20;4500205;-62
2022/11/25 05:50:11;;;;;;;;;153.75;121.00;;;;;-0.06;100.00;99855.56;6281524;20;4467947;-63
2022/11/25 05:52:41;;;;;;;;;172.25;129.75;;;;;-0.28;100.00;99847.09;6280605;20;3702435;-62
2022/11/25 05:55:11;;;;;;;;;141.50;104.50;;;;;-0.32;100.00;99860.34;6276551;20;3717032;-62
2022/11/25 05:57:42;;;;;;;;;122.75;96.25;;;;;-0.05;100.00;99864.38;6308239;20;3690954;-62
2022/11/25 06:00:13;;;;;;;;;171.75;130.75;;;;;-0.15;100.00;99861.00;6309417;20;4476405;-62
2022/11/25 06:02:42;;;;;;;;;152.00;123.00;;;;;-0.07;100.00;99864.38;6311348;20;3713830;-62
2022/11/25 06:05:12;;;;;;;;;109.33;85.00;;;;;-0.31;100.00;99873.53;6272980;20;3704473;-62
2022/11/25 06:07:42;;;;;;;;;109.67;84.67;;;;;-0.35;100.00;99870.97;6276664;20;3687854;-62
2022/11/25 06:10:12;;;;;;;;;94.00;70.00;;;;;-0.28;100.00;99873.50;6276376;20;3651418;-62
2022/11/25 06:12:42;;;;;;;;;84.33;61.33;;;;;-0.47;100.00;99872.03;6311598;20;3651285;-61
2022/11/25 06:15:12;;;;;;;;;82.00;58.67;;;;;-0.41;100.00;99871.94;6308831;20;3659662;-62
2022/11/25 06:17:41;;;;;;;;;85.00;60.00;;;;;-0.41;100.00;99874.56;6309933;20;3660660;-61
2022/11/25 06:20:11;;;;;;;;;90.67;61.67;;;;;-0.48;100.00;99886.94;6307689;20;3656567;-61
2022/11/25 06:22:39;;;;;;;;;123.00;100.00;;;;;-0.38;100.00;99886.84;6303775;20;1954491;-61
2022/11/25 06:25:09;;;;;;;;;76.67;57.00;;;;;-0.75;100.00;99890.81;6275088;20;3648277;-61
2022/11/25 06:27:39;;;;;;;;;114.00;94.00;;;;;-0.43;100.00;99894.81;6307249;20;3698232;-62
2022/11/25 06:30:29;;;;;;;;;91.33;70.00;;;;;-0.43;100.00;99901.84;6278052;20;3638928;-61
2022/11/25 06:32:59;;;;;;;;;86.33;62.67;;;;;-0.53;100.00;99898.44;6308958;20;3655460;-61
2022/11/25 06:35:28;;;;;;;;;89.67;62.33;;;;;-0.53;100.00;99903.72;6305417;20;3654422;-61
2022/11/25 06:37:59;;;;;;;;;86.00;58.67;;;;;-0.58;100.00;99906.44;6307231;20;3666956;-61
2022/11/25 06:40:28;;;;;;;;;84.67;61.67;;;;;-0.27;100.00;99911.28;6310308;20;3648132;-61
2022/11/25 06:42:58;;;;;;;;;90.33;64.00;;;;;-0.29;100.00;99906.06;6314798;20;3664827;-61
2022/11/25 06:45:28;;;;;;;;;99.33;72.33;;;;;-0.21;100.00;99908.59;6318211;20;3685705;-61
2022/11/25 06:47:57;;;;;;;;;88.67;64.00;;;;;-0.35;100.00;99919.31;6282084;20;3658706;-61
2022/11/25 06:50:27;;;;;;;;;78.33;58.00;;;;;-0.52;100.00;99916.03;6282109;20;2886758;-61
2022/11/25 06:52:55;;;;;;;;;62.00;49.00;;;;;-1.36;100.00;99917.84;6315960;20;2857634;-61
2022/11/25 06:55:23;;;;;;;;;53.50;42.50;;;;;-1.12;100.00;99924.63;6283149;20;2867071;-61
2022/11/25 06:57:52;;;;;;;;;68.00;45.67;;;;;-0.47;100.00;99924.75;6285473;20;2880592;-61
2022/11/25 07:00:42;;;;;;;;;71.00;49.33;;;;;-0.96;100.00;99926.22;6316512;20;2880552;-60
2022/11/25 07:03:11;;;;;;;;;80.00;50.67;;;;;-0.89;100.00;99933.16;6317747;20;2890368;-61
2022/11/25 07:05:41;;;;;;;;;77.67;57.67;;;;;-0.49;100.00;99932.69;6316705;20;2889932;-61
2022/11/25 07:08:11;;;;;;;;;88.33;59.67;;;;;-0.54;100.00;99934.50;6315087;20;3638154;-61
2022/11/25 07:10:40;;;;;;;;;95.00;66.00;;;;;-0.54;100.00;99949.47;6313146;20;3652446;-61
2022/11/25 07:13:09;;;;;;;;;93.00;67.67;;;;;-0.31;100.00;99947.41;6316733;20;3634653;-61
2022/11/25 07:15:39;;;;;;;;;89.67;63.33;;;;;0.18;100.00;99930.84;6314275;20;3639923;-61
2022/11/25 07:18:09;;;;;;;;;88.00;64.67;;;;;-0.30;100.00;99943.00;6315512;20;3636718;-61
2022/11/25 07:20:39;;;;;;;;;101.33;74.00;;;;;0.27;100.00;99944.84;6316136;20;3675388;-61
2022/11/25 07:23:08;;;;;;;;;72.00;54.33;;;;;0.30;100.00;99945.66;6278698;20;2892004;-62
2022/11/25 07:25:38;;;;;;;;;62.00;47.33;;;;;-0.09;100.00;99947.09;6314992;20;2867169;-62
2022/11/25 07:28:06;;;;;;;;;64.00;50.50;;;;;0.07;100.00;99946.00;6313047;20;2859675;-62
2022/11/25 07:30:36;;;;;;;;;68.67;49.67;;;;;0.30;100.00;99955.34;6283543;20;2890033;-62
2022/11/25 07:33:25;;;;;;;;;96.00;69.67;;;;;0.47;100.00;99958.56;6314030;20;3653406;-62
2022/11/25 07:35:55;;;;;;;;;99.67;72.67;;;;;0.59;100.00;99961.03;6314933;20;3674230;-62
2022/11/25 07:38:26;;;;;;;;;91.67;67.33;;;;;0.50;100.00;99963.84;6284012;20;3649243;-62
2022/11/25 07:40:55;;;;;;;;;80.33;59.00;;;;;0.44;100.00;99963.91;6311547;20;3632693;-62
2022/11/25 07:43:25;;;;;;;;;90.00;65.00;;;;;0.60;100.00;99973.31;6308679;20;3668119;-62
2022/11/25 07:45:54;;;;;;;;;85.00;62.67;;;;;0.85;100.00;99965.00;6316651;20;2888044;-62
2022/11/25 07:48:22;;;;;;;;;154.50;118.00;;;;;0.47;100.00;99958.56;6310258;20;1961050;-60
2022/11/25 07:50:51;;;;;;;;;101.33;74.00;;;;;0.49;100.00;99962.06;6282016;20;3684604;-62
2022/11/25 07:53:21;;;;;;;;;86.67;64.00;;;;;0.86;100.00;99972.03;6276229;20;3647347;-61
2022/11/25 07:55:51;;;;;;;;;106.00;73.75;;;;;0.58;100.00;99967.22;6314641;20;3697135;-62
2022/11/25 07:58:21;;;;;;;;;99.00;72.67;;;;;0.73;100.00;99966.06;6312145;20;3672203;-62
2022/11/25 08:00:51;;;;;;;;;158.75;119.00;;;;;0.56;100.00;99974.28;6285991;20;3723231;-62
2022/11/25 08:03:22;;;;;;;;;164.00;122.00;;;;;0.93;100.00;99972.78;6279576;20;3701488;-62
2022/11/25 08:05:53;;;;;;;;;162.75;124.50;;;;;0.46;100.00;99979.75;6279316;20;4475472;-63
2022/11/25 08:08:21;;;;;;;;;159.50;131.50;;;;;0.70;100.00;99979.34;6310185;20;1956638;-63
2022/11/25 08:10:51;;;;;;;;;148.00;123.25;;;;;0.81;100.00;99984.44;6282143;20;4479487;-62
2022/11/25 08:13:22;;;;;;;;;156.50;124.25;;;;;0.83;100.00;99980.00;6281052;20;4491900;-62
2022/11/25 08:15:52;;;;;;;;;346.33;270.67;;;;;0.52;100.00;99996.34;6279950;20;3735797;-63
2022/11/25 08:18:22;;;;;;;;;248.00;202.25;;;;;0.81;100.00;99990.59;6277344;20;4506475;-64
2022/11/25 08:20:58;;;;;;;;;202.25;163.25;;;;;0.61;100.00;99983.00;6273864;20;4481604;-62
2022/11/25 08:23:28;;;;;;;;;105.25;83.25;;;;;0.77;100.00;99998.63;6275936;20;3696186;-63
2022/11/25 08:26:13;;;;;;;;;130.25;111.25;;;;;0.76;100.00;99999.50;6280005;20;4486837;-63
2022/11/25 08:28:43;;;;;;;;;97.33;68.00;;;;;0.42;100.00;100000.94;6281467;20;3652408;-63
2022/11/25 08:31:17;;;;;;;;;102.33;69.67;;;;;0.68;100.00;100004.03;6315349;20;3668165;-63
2022/11/25 08:33:50;;;;;;;;;100.67;72.00;;;;;0.82;100.00;99997.63;6283309;20;3678579;-62
2022/11/25 08:36:20;;;;;;;;;75.00;58.50;;;;;0.77;100.00;100006.56;6314257;20;2868072;-62
2022/11/25 08:38:55;;;;;;;;;78.00;56.00;;;;;1.19;100.00;99998.78;6282939;20;2896300;-63
2022/11/25 08:41:33;;;;;;;;;77.33;53.33;;;;;1.20;100.00;100003.16;6316529;20;2880595;-63
2022/11/25 08:44:07;;;;;;;;;69.67;50.67;;;;;1.08;100.00;100007.78;6314433;20;2889941;-63
2022/11/25 08:46:38;;;;;;;;;65.00;47.50;;;;;1.07;100.00;100008.66;6312865;20;2865964;-63
2022/11/25 08:49:08;;;;;;;;;64.50;48.00;;;;;1.14;100.00;100014.72;6286064;20;2863853;-63
2022/11/25 08:51:38;;;;;;;;;64.00;43.33;;;;;0.97;100.00;100014.13;6283372;20;2871309;-63
2022/11/25 08:54:08;;;;;;;;;69.00;45.00;;;;;0.92;100.00;100008.03;6314451;20;3613854;-63
2022/11/25 08:56:39;;;;;;;;;117.00;84.25;;;;;1.00;100.00;100007.03;6315374;20;4459740;-63
2022/11/25 08:59:09;;;;;;;;;19.00;16.17;;;;;0.86;100.00;100006.38;6303607;20;2827373;-63
2022/11/25 09:01:38;;;;;;;;;59.50;39.00;;;;;1.23;100.00;99998.66;6314633;20;2864881;-63
2022/11/25 09:04:08;;;;;;;;;69.33;52.00;;;;;1.14;100.00;100011.19;6283155;20;3625296;-63
2022/11/25 09:06:38;;;;;;;;;59.50;44.50;;;;;1.21;100.00;100012.81;6312999;20;2855575;-64
2022/11/25 09:09:08;;;;;;;;;62.33;46.33;;;;;1.75;100.00;100012.66;6281366;20;2879642;-63
2022/11/25 09:11:36;;;;;;;;;58.00;42.50;;;;;1.76;100.00;100003.81;6313055;20;2850369;-64
2022/11/25 09:14:06;;;;;;;;;62.33;41.67;;;;;1.76;100.00;100022.34;6282686;20;3623292;-63
2022/11/25 09:16:36;;;;;;;;;42.67;37.33;;;;;1.66;100.00;100018.13;6315041;20;2863887;-64
2022/11/25 09:19:06;;;;;;;;;66.00;40.67;;;;;1.25;100.00;100027.75;6314621;20;3637791;-64
2022/11/25 09:21:34;;;;;;;;;41.50;36.00;;;;;1.52;100.00;100036.94;6311242;20;2859776;-64
2022/11/25 09:24:03;;;;;;;;;40.00;34.00;;;;;1.53;100.00;100028.97;6279152;20;2860793;-64
2022/11/25 09:26:34;;;;;;;;;53.33;38.67;;;;;1.82;100.00;100034.56;6278823;20;2884747;-64
2022/11/25 09:29:04;;;;;;;;;54.33;40.00;;;;;1.86;100.00;100031.84;6313187;20;2859764;-64
2022/11/25 09:31:33;;;;;;;;;44.50;38.50;;;;;1.57;100.00;100031.56;6312803;20;2869008;-64
2022/11/25 09:34:03;;;;;;;;;47.67;38.00;;;;;1.84;100.00;100020.41;6281943;20;2865979;-64
2022/11/25 09:36:32;;;;;;;;;56.33;38.67;;;;;1.78;100.00;100028.47;6314615;20;3602385;-64
2022/11/25 09:39:02;;;;;;;;;48.33;39.33;;;;;2.09;100.00;100023.41;6316356;20;3614849;-64
2022/11/25 09:48:53;;;;;;;;;46.00;28.00;;;;;1.83;100.00;100010.72;6281052;20;2875727;-65
2022/11/25 09:51:46;;;;;;;;;50.50;43.50;;;;;2.10;100.00;100014.56;6313063;20;2860679;-64
2022/11/25 09:54:28;;;;;;;;;63.50;45.00;;;;;2.16;100.00;100013.59;6280977;20;2875317;-64
2022/11/25 09:57:27;;;;;;;;;58.00;41.50;;;;;2.16;100.00;100013.59;6280203;20;2864917;-65
2022/11/25 10:00:12;;;;;;;;;68.67;47.00;;;;;2.01;100.00;99998.03;6281603;20;3632605;-64
2022/11/25 10:02:52;;;;;;;;;60.50;49.00;;;;;2.39;100.00;99999.78;6312063;20;2858646;-65
2022/11/25 10:05:38;;;;;;;;;62.50;30.50;;;;;2.01;100.00;100004.19;6283002;20;2879457;-65
2022/11/25 10:08:21;;;;;;;;;53.00;42.00;;;;;2.15;100.00;100003.88;6276542;20;2496162;-65
2022/11/25 10:11:34;;;;;;;;;60.00;44.50;;;;;2.40;100.00;100007.72;6280366;20;2875424;-65
2022/11/25 10:14:41;;;;;;;;;61.50;42.00;;;;;2.51;100.00;100011.91;6279932;20;2861716;-65
2022/11/25 10:17:34;;;;;;;;;58.00;45.00;;;;;2.59;100.00;100002.84;6276858;20;2864880;-65
2022/11/25 10:20:24;;;;;;;;;59.00;45.00;;;;;2.73;100.00;99999.84;6282722;20;2877379;-65
2022/11/25 10:23:31;;;;;;;;;62.00;44.50;;;;;2.65;100.00;100012.44;6281719;20;2871109;-65
2022/11/25 10:26:23;;;;;;;;;48.50;39.50;;;;;2.46;100.00;100008.47;6276944;20;2852916;-65
2022/11/25 10:29:13;;;;;;;;;55.33;38.67;;;;;2.72;100.00;100014.03;6278116;20;2881694;-65
2022/11/25 10:31:43;;;;;;;;;62.33;43.00;;;;;3.01;100.00;100015.97;6313860;20;3616958;-65
2022/11/25 10:34:44;;;;;;;;;59.00;43.00;;;;;2.88;100.00;100008.34;6308585;20;2875454;-65
2022/11/25 10:37:39;;;;;;;;;57.50;43.00;;;;;2.99;100.00;100009.81;6278158;20;2867968;-65
2022/11/25 10:40:16;;;;;;;;;57.00;41.50;;;;;3.00;100.00;100015.97;6277785;20;2865962;-65
2022/11/25 10:42:46;;;;;;;;;52.67;37.33;;;;;3.21;100.00;100007.50;6280480;20;3642158;-64
2022/11/25 10:45:16;;;;;;;;;52.33;40.33;;;;;3.29;100.00;100000.22;6309343;20;2863965;-64
2022/11/25 10:48:13;;;;;;;;;56.67;37.00;;;;;3.21;100.00;100007.50;6310278;20;3635673;-64
2022/11/25 10:51:09;;;;;;;;;59.33;43.67;;;;;3.25;100.00;100009.16;6309551;20;2864911;-63
2022/11/25 10:53:38;;;;;;;;;55.00;42.50;;;;;3.18;100.00;100002.25;6310342;20;2860935;-65
2022/11/25 10:56:18;;;;;;;;;51.00;40.00;;;;;3.50;100.00;99998.75;6281202;20;2851351;-62
2022/11/25 10:58:47;;;;;;;;;50.00;39.00;;;;;3.82;100.00;99994.31;6309805;20;2869055;-65
2022/11/25 11:01:27;;;;;;;;;59.33;42.00;;;;;3.73;100.00;100006.03;6281776;20;2873202;-65
2022/11/25 11:04:13;;;;;;;;;57.67;42.00;;;;;3.58;100.00;100014.47;6312658;20;2862871;-65
2022/11/25 11:06:48;;;;;;;;;58.33;43.00;;;;;3.65;100.00;100013.34;6310821;20;2859875;-64
2022/11/25 11:09:31;;;;;;;;;55.00;42.00;;;;;3.91;100.00;100015.28;6309003;20;2875381;-66
2022/11/25 11:12:27;;;;;;;;;58.00;43.00;;;;;3.76;100.00;100014.84;6281005;20;2877406;-65
2022/11/25 11:15:23;;;;;;;;;56.67;43.00;;;;;3.77;100.00;100016.59;6310342;20;2857681;-63
2022/11/25 11:17:55;;;;;;;;;49.00;40.00;;;;;3.98;100.00;100021.28;6307881;20;2840900;-63
2022/11/25 11:20:29;;;;;;;;;39.50;30.00;;;;;3.76;100.00;100031.66;6280461;20;2874361;-63
2022/11/25 11:23:11;;;;;;;;;62.33;42.00;;;;;3.70;100.00;100027.38;6278570;20;2884714;-63
2022/11/25 11:25:44;;;;;;;;;53.00;42.50;;;;;3.88;100.00;100026.00;6308102;20;2854454;-63
2022/11/25 11:28:39;;;;;;;;;52.50;41.50;;;;;4.25;100.00;100024.91;6278106;20;2844131;-64
2022/11/25 11:31:24;;;;;;;;;63.50;47.00;;;;;4.12;100.00;100026.19;6279569;20;2468119;-64
2022/11/25 11:34:38;;;;;;;;;56.50;40.00;;;;;4.40;100.00;100026.25;6282445;20;2861735;-64
2022/11/25 11:37:44;;;;;;;;;50.33;39.67;;;;;4.13;100.00;100023.50;6282034;20;2858033;-64
2022/11/25 11:40:45;;;;;;;;;39.50;30.00;;;;;3.87;100.00;100023.38;6314863;20;2848202;-57
2022/11/25 11:44:03;;;;;;;;;57.00;40.00;;;;;3.87;100.00;100034.88;6282605;20;2861726;-62